Main page
METAR-TAF:

METAR-TAF

Airports :

Resistencia International Airport

Resistencia, Argentina

latitude: 27-27S, longitude: 059-03W, elevation: 53 m

Current weather observation

The report was made 20 minutes ago, at 07:00 UTC
Wind 6 kt from the Northeast
Temperature 27°C
Humidity 70%
Pressure 1003 hPa
Visibility 10 km or more
no clouds below 1500 m and no cumulonimbus

METAR: SARE 080700Z 04006KT CAVOK 27/21 Q1003 RMK PP///

Time: 04:20 (07:20 UTC)

Forecast

The report was made 2 hours and 20 minutes ago, at 05:00 UTC
Forecast valid from 08 at 06 UTC to 09 at 06 UTC
Wind 5 kt from the Northeast
Visibility 10 km or more
no clouds below 1500 m and no cumulonimbus

TAF: SARE 080500Z 0806/0906 05005KT CAVOK TX41/0819Z TN26/0809Z

Weather observations and forecasts of more than 4000 airports (METAR and TAF reports).

The available stations are represented by yellow and red dots on the map.

Hover mouse over dot to see the name of the station.

Then click to see weather observations and forecasts.

To change the map : click on the green buttons with a black cross to zoom in, on the green button with a dash to zoom out, or on the green arrows for adjacent maps.


METAR-TAF: